sensor_id;sensor_type;location;lat;lon;timestamp;P1;durP1;ratioP1;P2;durP2;ratioP2
55222;SDS011;41090;48.632;12.428;2024-03-06T00:00:59;23.77;;;17.13;;
55222;SDS011;41090;48.632;12.428;2024-03-06T00:03:24;21.63;;;16.63;;
55222;SDS011;41090;48.632;12.428;2024-03-06T00:05:49;21.07;;;17.13;;
55222;SDS011;41090;48.632;12.428;2024-03-06T00:08:15;24.43;;;16.73;;
55222;SDS011;41090;48.632;12.428;2024-03-06T00:10:40;20.17;;;15.60;;
55222;SDS011;41090;48.632;12.428;2024-03-06T00:13:05;19.23;;;15.37;;
55222;SDS011;41090;48.632;12.428;2024-03-06T00:15:31;21.13;;;15.77;;
55222;SDS011;41090;48.632;12.428;2024-03-06T00:17:56;23.40;;;16.33;;
55222;SDS011;41090;48.632;12.428;2024-03-06T00:20:21;21.87;;;16.40;;
55222;SDS011;41090;48.632;12.428;2024-03-06T00:22:46;21.27;;;17.00;;
55222;SDS011;41090;48.632;12.428;2024-03-06T00:25:12;22.53;;;16.90;;
55222;SDS011;41090;48.632;12.428;2024-03-06T00:27:37;20.90;;;16.13;;
55222;SDS011;41090;48.632;12.428;2024-03-06T00:30:02;21.23;;;16.47;;
55222;SDS011;41090;48.632;12.428;2024-03-06T00:32:27;21.47;;;17.47;;
55222;SDS011;41090;48.632;12.428;2024-03-06T00:34:53;22.83;;;16.40;;
55222;SDS011;41090;48.632;12.428;2024-03-06T00:37:18;22.70;;;15.97;;
55222;SDS011;41090;48.632;12.428;2024-03-06T00:39:44;22.97;;;16.53;;
55222;SDS011;41090;48.632;12.428;2024-03-06T00:42:09;21.17;;;16.27;;
55222;SDS011;41090;48.632;12.428;2024-03-06T00:44:36;20.13;;;16.10;;
55222;SDS011;41090;48.632;12.428;2024-03-06T00:47:01;21.37;;;16.87;;
55222;SDS011;41090;48.632;12.428;2024-03-06T00:49:27;22.70;;;16.70;;
55222;SDS011;41090;48.632;12.428;2024-03-06T00:51:52;21.67;;;15.93;;
55222;SDS011;41090;48.632;12.428;2024-03-06T00:54:17;20.87;;;16.13;;
55222;SDS011;41090;48.632;12.428;2024-03-06T00:56:42;22.37;;;15.83;;
55222;SDS011;41090;48.632;12.428;2024-03-06T00:59:07;18.53;;;15.07;;
55222;SDS011;41090;48.632;12.428;2024-03-06T01:01:33;23.03;;;16.47;;
55222;SDS011;41090;48.632;12.428;2024-03-06T01:03:58;21.77;;;16.77;;
55222;SDS011;41090;48.632;12.428;2024-03-06T01:06:23;21.10;;;18.10;;
55222;SDS011;41090;48.632;12.428;2024-03-06T01:08:48;25.00;;;18.47;;
55222;SDS011;41090;48.632;12.428;2024-03-06T01:11:13;24.37;;;19.00;;
55222;SDS011;41090;48.632;12.428;2024-03-06T01:13:39;25.77;;;19.93;;
55222;SDS011;41090;48.632;12.428;2024-03-06T01:16:05;30.30;;;21.60;;
55222;SDS011;41090;48.632;12.428;2024-03-06T01:18:30;22.53;;;18.23;;
55222;SDS011;41090;48.632;12.428;2024-03-06T01:20:55;21.90;;;17.30;;
55222;SDS011;41090;48.632;12.428;2024-03-06T01:23:21;20.87;;;16.77;;
55222;SDS011;41090;48.632;12.428;2024-03-06T01:25:46;20.50;;;16.43;;
55222;SDS011;41090;48.632;12.428;2024-03-06T01:28:11;20.33;;;15.63;;
55222;SDS011;41090;48.632;12.428;2024-03-06T01:30:36;21.67;;;16.37;;
55222;SDS011;41090;48.632;12.428;2024-03-06T01:33:01;22.03;;;16.77;;
55222;SDS011;41090;48.632;12.428;2024-03-06T01:35:27;21.70;;;16.50;;
55222;SDS011;41090;48.632;12.428;2024-03-06T01:37:52;21.70;;;17.10;;
55222;SDS011;41090;48.632;12.428;2024-03-06T01:40:17;21.80;;;16.77;;
55222;SDS011;41090;48.632;12.428;2024-03-06T01:42:42;20.80;;;16.23;;
55222;SDS011;41090;48.632;12.428;2024-03-06T01:45:07;20.17;;;16.40;;
55222;SDS011;41090;48.632;12.428;2024-03-06T01:47:33;22.33;;;16.93;;
55222;SDS011;41090;48.632;12.428;2024-03-06T01:49:58;21.00;;;16.70;;
55222;SDS011;41090;48.632;12.428;2024-03-06T01:52:24;21.40;;;17.07;;
55222;SDS011;41090;48.632;12.428;2024-03-06T01:54:49;22.07;;;18.03;;
55222;SDS011;41090;48.632;12.428;2024-03-06T01:57:15;22.03;;;17.67;;
55222;SDS011;41090;48.632;12.428;2024-03-06T01:59:42;22.87;;;16.57;;
55222;SDS011;41090;48.632;12.428;2024-03-06T02:02:07;21.50;;;16.67;;
55222;SDS011;41090;48.632;12.428;2024-03-06T02:04:33;21.43;;;17.10;;
55222;SDS011;41090;48.632;12.428;2024-03-06T02:06:58;22.93;;;18.03;;
55222;SDS011;41090;48.632;12.428;2024-03-06T02:09:24;22.43;;;18.30;;
55222;SDS011;41090;48.632;12.428;2024-03-06T02:11:49;21.43;;;16.60;;
55222;SDS011;41090;48.632;12.428;2024-03-06T02:14:18;21.93;;;17.80;;
55222;SDS011;41090;48.632;12.428;2024-03-06T02:16:44;21.00;;;17.20;;
55222;SDS011;41090;48.632;12.428;2024-03-06T02:19:09;24.57;;;18.20;;
55222;SDS011;41090;48.632;12.428;2024-03-06T02:21:34;22.23;;;17.80;;
55222;SDS011;41090;48.632;12.428;2024-03-06T02:24:00;22.53;;;17.37;;
55222;SDS011;41090;48.632;12.428;2024-03-06T02:26:25;20.80;;;16.97;;
55222;SDS011;41090;48.632;12.428;2024-03-06T02:28:51;21.80;;;17.00;;
55222;SDS011;41090;48.632;12.428;2024-03-06T02:31:17;22.97;;;17.33;;
55222;SDS011;41090;48.632;12.428;2024-03-06T02:33:43;19.77;;;16.20;;
55222;SDS011;41090;48.632;12.428;2024-03-06T02:36:09;19.10;;;15.67;;
55222;SDS011;41090;48.632;12.428;2024-03-06T02:38:34;21.30;;;16.10;;
55222;SDS011;41090;48.632;12.428;2024-03-06T02:41:00;22.40;;;16.63;;
55222;SDS011;41090;48.632;12.428;2024-03-06T02:43:25;19.67;;;15.67;;
55222;SDS011;41090;48.632;12.428;2024-03-06T02:45:50;24.50;;;18.17;;
55222;SDS011;41090;48.632;12.428;2024-03-06T02:48:15;23.73;;;18.40;;
55222;SDS011;41090;48.632;12.428;2024-03-06T02:50:41;23.47;;;17.17;;
55222;SDS011;41090;48.632;12.428;2024-03-06T02:53:06;22.17;;;16.87;;
55222;SDS011;41090;48.632;12.428;2024-03-06T02:55:32;19.23;;;15.10;;
55222;SDS011;41090;48.632;12.428;2024-03-06T02:57:57;19.27;;;15.73;;
55222;SDS011;41090;48.632;12.428;2024-03-06T03:00:26;21.13;;;15.17;;
55222;SDS011;41090;48.632;12.428;2024-03-06T03:02:52;21.03;;;16.53;;
55222;SDS011;41090;48.632;12.428;2024-03-06T03:05:17;18.60;;;15.53;;
55222;SDS011;41090;48.632;12.428;2024-03-06T03:07:43;23.57;;;16.00;;
55222;SDS011;41090;48.632;12.428;2024-03-06T03:10:08;21.63;;;16.33;;
55222;SDS011;41090;48.632;12.428;2024-03-06T03:12:35;22.77;;;17.23;;
55222;SDS011;41090;48.632;12.428;2024-03-06T03:15:00;22.13;;;17.10;;
55222;SDS011;41090;48.632;12.428;2024-03-06T03:17:25;22.33;;;17.13;;
55222;SDS011;41090;48.632;12.428;2024-03-06T03:19:51;23.50;;;18.23;;
55222;SDS011;41090;48.632;12.428;2024-03-06T03:22:17;25.40;;;18.27;;
55222;SDS011;41090;48.632;12.428;2024-03-06T03:24:42;23.57;;;18.37;;
55222;SDS011;41090;48.632;12.428;2024-03-06T03:27:08;22.60;;;17.97;;
55222;SDS011;41090;48.632;12.428;2024-03-06T03:29:33;20.40;;;16.77;;
55222;SDS011;41090;48.632;12.428;2024-03-06T03:31:58;21.43;;;17.10;;
55222;SDS011;41090;48.632;12.428;2024-03-06T03:34:23;19.80;;;16.33;;
55222;SDS011;41090;48.632;12.428;2024-03-06T03:36:49;22.67;;;16.90;;
55222;SDS011;41090;48.632;12.428;2024-03-06T03:39:14;21.60;;;16.40;;
55222;SDS011;41090;48.632;12.428;2024-03-06T03:41:45;22.10;;;16.50;;
55222;SDS011;41090;48.632;12.428;2024-03-06T03:44:11;21.67;;;16.37;;
55222;SDS011;41090;48.632;12.428;2024-03-06T03:46:36;22.63;;;15.73;;
55222;SDS011;41090;48.632;12.428;2024-03-06T03:49:01;22.97;;;16.10;;
55222;SDS011;41090;48.632;12.428;2024-03-06T03:51:26;19.23;;;15.43;;
55222;SDS011;41090;48.632;12.428;2024-03-06T03:53:52;20.10;;;15.57;;
55222;SDS011;41090;48.632;12.428;2024-03-06T03:56:18;20.53;;;15.53;;
55222;SDS011;41090;48.632;12.428;2024-03-06T03:58:43;19.13;;;15.20;;
55222;SDS011;41090;48.632;12.428;2024-03-06T04:01:10;18.67;;;14.67;;
55222;SDS011;41090;48.632;12.428;2024-03-06T04:03:35;19.13;;;13.77;;
55222;SDS011;41090;48.632;12.428;2024-03-06T04:06:01;23.00;;;15.70;;
55222;SDS011;41090;48.632;12.428;2024-03-06T04:08:26;19.23;;;14.27;;
55222;SDS011;41090;48.632;12.428;2024-03-06T04:10:51;19.77;;;14.90;;
55222;SDS011;41090;48.632;12.428;2024-03-06T04:13:17;20.13;;;15.93;;
55222;SDS011;41090;48.632;12.428;2024-03-06T04:15:44;22.10;;;15.40;;
55222;SDS011;41090;48.632;12.428;2024-03-06T04:18:09;20.40;;;15.37;;
55222;SDS011;41090;48.632;12.428;2024-03-06T04:20:35;19.50;;;14.90;;
55222;SDS011;41090;48.632;12.428;2024-03-06T04:23:00;17.03;;;13.77;;
55222;SDS011;41090;48.632;12.428;2024-03-06T04:25:25;19.97;;;14.13;;
55222;SDS011;41090;48.632;12.428;2024-03-06T04:27:50;22.00;;;15.63;;
55222;SDS011;41090;48.632;12.428;2024-03-06T04:30:16;18.73;;;14.83;;
55222;SDS011;41090;48.632;12.428;2024-03-06T04:32:41;20.60;;;14.67;;
55222;SDS011;41090;48.632;12.428;2024-03-06T04:35:06;18.03;;;14.50;;
55222;SDS011;41090;48.632;12.428;2024-03-06T04:37:32;21.30;;;14.50;;
55222;SDS011;41090;48.632;12.428;2024-03-06T04:39:58;21.57;;;15.37;;
55222;SDS011;41090;48.632;12.428;2024-03-06T04:42:23;19.60;;;14.47;;
55222;SDS011;41090;48.632;12.428;2024-03-06T04:44:48;20.13;;;15.20;;
55222;SDS011;41090;48.632;12.428;2024-03-06T04:47:14;21.17;;;15.17;;
55222;SDS011;41090;48.632;12.428;2024-03-06T04:49:39;20.93;;;15.43;;
55222;SDS011;41090;48.632;12.428;2024-03-06T04:52:04;18.80;;;15.30;;
55222;SDS011;41090;48.632;12.428;2024-03-06T04:54:29;24.17;;;16.43;;
55222;SDS011;41090;48.632;12.428;2024-03-06T04:56:55;23.47;;;16.47;;
55222;SDS011;41090;48.632;12.428;2024-03-06T04:59:20;28.83;;;21.13;;
55222;SDS011;41090;48.632;12.428;2024-03-06T05:01:45;22.27;;;16.60;;
55222;SDS011;41090;48.632;12.428;2024-03-06T05:04:11;22.20;;;16.90;;
55222;SDS011;41090;48.632;12.428;2024-03-06T05:06:36;21.23;;;16.20;;
55222;SDS011;41090;48.632;12.428;2024-03-06T05:09:02;20.37;;;16.63;;
55222;SDS011;41090;48.632;12.428;2024-03-06T05:11:28;22.40;;;15.70;;
55222;SDS011;41090;48.632;12.428;2024-03-06T05:13:53;20.40;;;15.53;;
55222;SDS011;41090;48.632;12.428;2024-03-06T05:16:18;19.90;;;14.90;;
55222;SDS011;41090;48.632;12.428;2024-03-06T05:18:43;23.37;;;16.27;;
55222;SDS011;41090;48.632;12.428;2024-03-06T05:21:08;22.73;;;15.73;;
55222;SDS011;41090;48.632;12.428;2024-03-06T05:23:34;22.27;;;15.97;;
55222;SDS011;41090;48.632;12.428;2024-03-06T05:25:59;21.83;;;17.00;;
55222;SDS011;41090;48.632;12.428;2024-03-06T05:28:24;20.27;;;15.83;;
55222;SDS011;41090;48.632;12.428;2024-03-06T05:30:49;19.43;;;14.67;;
55222;SDS011;41090;48.632;12.428;2024-03-06T05:33:15;19.63;;;14.83;;
55222;SDS011;41090;48.632;12.428;2024-03-06T05:35:40;18.83;;;14.93;;
55222;SDS011;41090;48.632;12.428;2024-03-06T05:38:05;19.90;;;15.07;;
55222;SDS011;41090;48.632;12.428;2024-03-06T05:40:32;22.27;;;17.17;;
55222;SDS011;41090;48.632;12.428;2024-03-06T05:43:02;21.80;;;16.70;;
55222;SDS011;41090;48.632;12.428;2024-03-06T05:45:27;22.90;;;16.63;;
55222;SDS011;41090;48.632;12.428;2024-03-06T05:47:52;20.60;;;15.63;;
55222;SDS011;41090;48.632;12.428;2024-03-06T05:50:17;24.07;;;16.70;;
55222;SDS011;41090;48.632;12.428;2024-03-06T05:52:43;19.57;;;15.57;;
55222;SDS011;41090;48.632;12.428;2024-03-06T05:55:08;28.17;;;17.13;;
55222;SDS011;41090;48.632;12.428;2024-03-06T05:57:34;24.47;;;17.23;;
55222;SDS011;41090;48.632;12.428;2024-03-06T05:59:59;22.27;;;16.67;;
55222;SDS011;41090;48.632;12.428;2024-03-06T06:02:24;21.23;;;16.37;;
55222;SDS011;41090;48.632;12.428;2024-03-06T06:04:50;22.67;;;16.00;;
55222;SDS011;41090;48.632;12.428;2024-03-06T06:07:15;19.63;;;15.43;;
55222;SDS011;41090;48.632;12.428;2024-03-06T06:09:40;20.97;;;15.80;;
55222;SDS011;41090;48.632;12.428;2024-03-06T06:12:06;21.90;;;16.67;;
55222;SDS011;41090;48.632;12.428;2024-03-06T06:14:31;22.63;;;16.23;;
55222;SDS011;41090;48.632;12.428;2024-03-06T06:16:56;21.60;;;16.27;;
55222;SDS011;41090;48.632;12.428;2024-03-06T06:19:21;20.60;;;15.37;;
55222;SDS011;41090;48.632;12.428;2024-03-06T06:21:47;22.17;;;16.03;;
55222;SDS011;41090;48.632;12.428;2024-03-06T06:24:12;23.40;;;15.20;;
55222;SDS011;41090;48.632;12.428;2024-03-06T06:26:38;21.43;;;16.10;;
55222;SDS011;41090;48.632;12.428;2024-03-06T06:29:03;21.47;;;15.83;;
55222;SDS011;41090;48.632;12.428;2024-03-06T06:31:28;21.47;;;15.80;;
55222;SDS011;41090;48.632;12.428;2024-03-06T06:33:53;22.83;;;17.10;;
55222;SDS011;41090;48.632;12.428;2024-03-06T06:36:18;23.30;;;17.93;;
55222;SDS011;41090;48.632;12.428;2024-03-06T06:38:44;26.60;;;21.73;;
55222;SDS011;41090;48.632;12.428;2024-03-06T06:41:10;30.57;;;24.00;;
55222;SDS011;41090;48.632;12.428;2024-03-06T06:43:35;22.47;;;17.70;;
55222;SDS011;41090;48.632;12.428;2024-03-06T06:46:00;22.20;;;15.97;;
55222;SDS011;41090;48.632;12.428;2024-03-06T06:48:26;20.43;;;15.63;;
55222;SDS011;41090;48.632;12.428;2024-03-06T06:50:52;24.87;;;18.90;;
55222;SDS011;41090;48.632;12.428;2024-03-06T06:53:17;25.97;;;20.37;;
55222;SDS011;41090;48.632;12.428;2024-03-06T06:55:42;24.70;;;19.93;;
55222;SDS011;41090;48.632;12.428;2024-03-06T06:58:07;22.87;;;16.90;;
55222;SDS011;41090;48.632;12.428;2024-03-06T07:00:33;23.13;;;16.43;;
55222;SDS011;41090;48.632;12.428;2024-03-06T07:02:59;22.97;;;18.70;;
55222;SDS011;41090;48.632;12.428;2024-03-06T07:05:25;24.93;;;20.40;;
55222;SDS011;41090;48.632;12.428;2024-03-06T07:07:51;22.70;;;17.83;;
55222;SDS011;41090;48.632;12.428;2024-03-06T07:10:16;23.30;;;18.00;;
55222;SDS011;41090;48.632;12.428;2024-03-06T07:12:41;24.37;;;18.27;;
55222;SDS011;41090;48.632;12.428;2024-03-06T07:15:07;23.13;;;19.37;;
55222;SDS011;41090;48.632;12.428;2024-03-06T07:17:32;24.67;;;18.77;;
55222;SDS011;41090;48.632;12.428;2024-03-06T07:19:57;23.77;;;18.83;;
55222;SDS011;41090;48.632;12.428;2024-03-06T07:22:23;24.93;;;18.20;;
55222;SDS011;41090;48.632;12.428;2024-03-06T07:24:48;24.23;;;18.10;;
55222;SDS011;41090;48.632;12.428;2024-03-06T07:27:13;23.57;;;17.07;;
55222;SDS011;41090;48.632;12.428;2024-03-06T07:29:39;23.30;;;17.10;;
55222;SDS011;41090;48.632;12.428;2024-03-06T07:32:04;22.43;;;17.50;;
55222;SDS011;41090;48.632;12.428;2024-03-06T07:34:32;24.73;;;18.17;;
55222;SDS011;41090;48.632;12.428;2024-03-06T07:36:57;22.37;;;17.03;;
55222;SDS011;41090;48.632;12.428;2024-03-06T07:39:26;25.43;;;17.93;;
55222;SDS011;41090;48.632;12.428;2024-03-06T07:41:51;25.13;;;17.10;;
55222;SDS011;41090;48.632;12.428;2024-03-06T07:44:17;21.47;;;17.67;;
55222;SDS011;41090;48.632;12.428;2024-03-06T07:46:42;23.80;;;17.87;;
55222;SDS011;41090;48.632;12.428;2024-03-06T07:49:07;20.37;;;17.17;;
55222;SDS011;41090;48.632;12.428;2024-03-06T07:51:33;22.07;;;18.03;;
55222;SDS011;41090;48.632;12.428;2024-03-06T07:53:58;22.10;;;17.03;;
55222;SDS011;41090;48.632;12.428;2024-03-06T07:56:24;24.67;;;18.17;;
55222;SDS011;41090;48.632;12.428;2024-03-06T07:58:49;22.03;;;17.77;;
55222;SDS011;41090;48.632;12.428;2024-03-06T08:01:15;25.00;;;17.37;;
55222;SDS011;41090;48.632;12.428;2024-03-06T08:03:40;23.17;;;17.63;;
55222;SDS011;41090;48.632;12.428;2024-03-06T08:06:05;23.93;;;17.43;;
55222;SDS011;41090;48.632;12.428;2024-03-06T08:08:31;21.83;;;17.77;;
55222;SDS011;41090;48.632;12.428;2024-03-06T08:10:56;21.37;;;17.40;;
55222;SDS011;41090;48.632;12.428;2024-03-06T08:13:21;19.23;;;17.03;;
55222;SDS011;41090;48.632;12.428;2024-03-06T08:15:46;21.93;;;17.83;;
55222;SDS011;41090;48.632;12.428;2024-03-06T08:18:12;20.80;;;17.03;;
55222;SDS011;41090;48.632;12.428;2024-03-06T08:20:38;18.80;;;16.27;;
55222;SDS011;41090;48.632;12.428;2024-03-06T08:23:03;24.13;;;18.03;;
55222;SDS011;41090;48.632;12.428;2024-03-06T08:25:29;22.07;;;17.53;;
55222;SDS011;41090;48.632;12.428;2024-03-06T08:27:57;22.33;;;17.83;;
55222;SDS011;41090;48.632;12.428;2024-03-06T08:30:24;23.03;;;18.90;;
55222;SDS011;41090;48.632;12.428;2024-03-06T08:32:49;22.40;;;18.23;;
55222;SDS011;41090;48.632;12.428;2024-03-06T08:35:15;23.37;;;18.57;;
55222;SDS011;41090;48.632;12.428;2024-03-06T08:37:43;22.33;;;18.53;;
55222;SDS011;41090;48.632;12.428;2024-03-06T08:40:08;22.73;;;18.33;;
55222;SDS011;41090;48.632;12.428;2024-03-06T08:42:40;20.63;;;18.40;;
55222;SDS011;41090;48.632;12.428;2024-03-06T08:45:06;21.17;;;18.43;;
55222;SDS011;41090;48.632;12.428;2024-03-06T08:47:32;25.53;;;21.50;;
55222;SDS011;41090;48.632;12.428;2024-03-06T08:49:58;22.87;;;19.77;;
55222;SDS011;41090;48.632;12.428;2024-03-06T08:52:23;21.53;;;18.03;;
55222;SDS011;41090;48.632;12.428;2024-03-06T08:54:48;19.52;;;17.35;;
55222;SDS011;41090;48.632;12.428;2024-03-06T08:57:13;19.40;;;16.37;;
55222;SDS011;41090;48.632;12.428;2024-03-06T08:59:38;19.00;;;16.50;;
55222;SDS011;41090;48.632;12.428;2024-03-06T09:02:14;17.53;;;15.70;;
55222;SDS011;41090;48.632;12.428;2024-03-06T09:04:42;17.97;;;15.57;;
55222;SDS011;41090;48.632;12.428;2024-03-06T09:07:07;16.83;;;14.95;;
55222;SDS011;41090;48.632;12.428;2024-03-06T09:09:33;18.13;;;16.27;;
55222;SDS011;41090;48.632;12.428;2024-03-06T09:11:59;15.63;;;14.13;;
55222;SDS011;41090;48.632;12.428;2024-03-06T09:14:25;14.90;;;13.40;;
55222;SDS011;41090;48.632;12.428;2024-03-06T09:16:50;15.27;;;13.70;;
55222;SDS011;41090;48.632;12.428;2024-03-06T09:19:15;17.70;;;15.85;;
55222;SDS011;41090;48.632;12.428;2024-03-06T09:21:40;16.67;;;15.07;;
55222;SDS011;41090;48.632;12.428;2024-03-06T09:24:06;14.23;;;12.82;;
55222;SDS011;41090;48.632;12.428;2024-03-06T09:26:31;14.70;;;13.20;;
55222;SDS011;41090;48.632;12.428;2024-03-06T09:28:56;14.70;;;13.25;;
55222;SDS011;41090;48.632;12.428;2024-03-06T09:31:21;13.82;;;12.52;;
55222;SDS011;41090;48.632;12.428;2024-03-06T09:33:47;13.30;;;12.00;;
55222;SDS011;41090;48.632;12.428;2024-03-06T09:36:12;14.05;;;12.50;;
55222;SDS011;41090;48.632;12.428;2024-03-06T09:38:40;13.48;;;12.18;;
55222;SDS011;41090;48.632;12.428;2024-03-06T09:41:06;13.52;;;12.23;;
55222;SDS011;41090;48.632;12.428;2024-03-06T09:43:32;13.25;;;11.85;;
55222;SDS011;41090;48.632;12.428;2024-03-06T09:45:57;13.15;;;11.88;;
55222;SDS011;41090;48.632;12.428;2024-03-06T09:48:22;13.20;;;12.00;;
55222;SDS011;41090;48.632;12.428;2024-03-06T09:50:48;14.40;;;12.93;;
55222;SDS011;41090;48.632;12.428;2024-03-06T09:53:15;13.65;;;12.45;;
55222;SDS011;41090;48.632;12.428;2024-03-06T09:55:40;13.48;;;12.05;;
55222;SDS011;41090;48.632;12.428;2024-03-06T09:58:06;12.30;;;11.20;;
55222;SDS011;41090;48.632;12.428;2024-03-06T10:00:31;12.23;;;11.02;;
55222;SDS011;41090;48.632;12.428;2024-03-06T10:02:58;12.18;;;11.05;;
55222;SDS011;41090;48.632;12.428;2024-03-06T10:05:26;12.55;;;11.35;;
55222;SDS011;41090;48.632;12.428;2024-03-06T10:07:52;12.43;;;11.23;;
55222;SDS011;41090;48.632;12.428;2024-03-06T10:10:18;12.30;;;11.10;;
55222;SDS011;41090;48.632;12.428;2024-03-06T10:12:45;12.85;;;11.65;;
55222;SDS011;41090;48.632;12.428;2024-03-06T10:15:10;13.38;;;11.95;;
55222;SDS011;41090;48.632;12.428;2024-03-06T10:17:37;13.40;;;12.00;;
55222;SDS011;41090;48.632;12.428;2024-03-06T10:20:15;13.70;;;12.30;;
55222;SDS011;41090;48.632;12.428;2024-03-06T10:22:41;13.73;;;12.23;;
55222;SDS011;41090;48.632;12.428;2024-03-06T10:25:06;14.13;;;12.63;;
55222;SDS011;41090;48.632;12.428;2024-03-06T10:27:34;14.47;;;12.80;;
55222;SDS011;41090;48.632;12.428;2024-03-06T10:30:00;13.87;;;12.33;;
55222;SDS011;41090;48.632;12.428;2024-03-06T10:32:25;14.00;;;12.50;;
55222;SDS011;41090;48.632;12.428;2024-03-06T10:34:51;12.73;;;11.43;;
55222;SDS011;41090;48.632;12.428;2024-03-06T10:37:17;13.90;;;12.50;;
55222;SDS011;41090;48.632;12.428;2024-03-06T10:39:42;14.47;;;13.07;;
55222;SDS011;41090;48.632;12.428;2024-03-06T10:42:09;14.00;;;12.60;;
55222;SDS011;41090;48.632;12.428;2024-03-06T10:44:37;13.13;;;11.67;;
55222;SDS011;41090;48.632;12.428;2024-03-06T10:47:08;14.60;;;13.10;;
55222;SDS011;41090;48.632;12.428;2024-03-06T10:49:34;14.27;;;12.83;;
55222;SDS011;41090;48.632;12.428;2024-03-06T10:52:01;15.87;;;13.53;;
55222;SDS011;41090;48.632;12.428;2024-03-06T10:54:27;13.80;;;12.40;;
55222;SDS011;41090;48.632;12.428;2024-03-06T10:56:53;23.47;;;21.10;;
55222;SDS011;41090;48.632;12.428;2024-03-06T10:59:18;14.80;;;13.30;;
55222;SDS011;41090;48.632;12.428;2024-03-06T11:01:45;13.33;;;11.93;;
55222;SDS011;41090;48.632;12.428;2024-03-06T11:04:12;13.70;;;12.27;;
55222;SDS011;41090;48.632;12.428;2024-03-06T11:06:38;13.47;;;12.07;;
55222;SDS011;41090;48.632;12.428;2024-03-06T11:09:03;13.40;;;12.10;;
55222;SDS011;41090;48.632;12.428;2024-03-06T11:11:29;12.83;;;11.33;;
55222;SDS011;41090;48.632;12.428;2024-03-06T11:14:04;13.93;;;12.43;;
55222;SDS011;41090;48.632;12.428;2024-03-06T11:16:30;13.83;;;12.30;;
55222;SDS011;41090;48.632;12.428;2024-03-06T11:19:07;22.93;;;20.50;;
55222;SDS011;41090;48.632;12.428;2024-03-06T11:21:33;15.83;;;13.37;;
55222;SDS011;41090;48.632;12.428;2024-03-06T11:26:35;15.20;;;12.77;;
55222;SDS011;41090;48.632;12.428;2024-03-06T11:29:00;14.90;;;13.23;;
55222;SDS011;41090;48.632;12.428;2024-03-06T11:31:26;14.53;;;12.50;;
55222;SDS011;41090;48.632;12.428;2024-03-06T11:33:53;14.53;;;12.13;;
55222;SDS011;41090;48.632;12.428;2024-03-06T11:36:27;14.77;;;12.67;;
55222;SDS011;41090;48.632;12.428;2024-03-06T11:38:56;14.90;;;12.03;;
55222;SDS011;41090;48.632;12.428;2024-03-06T11:41:31;13.97;;;12.13;;
55222;SDS011;41090;48.632;12.428;2024-03-06T11:43:59;26.67;;;23.50;;
55222;SDS011;41090;48.632;12.428;2024-03-06T11:46:43;15.80;;;14.10;;
55222;SDS011;41090;48.632;12.428;2024-03-06T11:49:15;14.93;;;12.40;;
55222;SDS011;41090;48.632;12.428;2024-03-06T11:51:44;15.40;;;12.40;;
55222;SDS011;41090;48.632;12.428;2024-03-06T11:54:09;14.83;;;12.37;;
55222;SDS011;41090;48.632;12.428;2024-03-06T11:56:35;16.33;;;12.77;;
55222;SDS011;41090;48.632;12.428;2024-03-06T11:59:01;17.63;;;13.30;;
55222;SDS011;41090;48.632;12.428;2024-03-06T12:01:26;16.43;;;12.03;;
55222;SDS011;41090;48.632;12.428;2024-03-06T12:03:51;14.13;;;12.43;;
55222;SDS011;41090;48.632;12.428;2024-03-06T12:06:17;15.93;;;12.40;;
55222;SDS011;41090;48.632;12.428;2024-03-06T12:08:44;13.00;;;11.47;;
55222;SDS011;41090;48.632;12.428;2024-03-06T12:11:09;13.37;;;11.90;;
55222;SDS011;41090;48.632;12.428;2024-03-06T12:13:34;14.20;;;12.63;;
55222;SDS011;41090;48.632;12.428;2024-03-06T12:16:03;14.93;;;12.80;;
55222;SDS011;41090;48.632;12.428;2024-03-06T12:18:28;16.57;;;12.93;;
55222;SDS011;41090;48.632;12.428;2024-03-06T12:20:54;14.83;;;13.33;;
55222;SDS011;41090;48.632;12.428;2024-03-06T12:23:22;15.33;;;13.73;;
55222;SDS011;41090;48.632;12.428;2024-03-06T12:26:01;16.03;;;13.77;;
55222;SDS011;41090;48.632;12.428;2024-03-06T12:28:27;15.50;;;13.63;;
55222;SDS011;41090;48.632;12.428;2024-03-06T12:30:52;14.60;;;13.10;;
55222;SDS011;41090;48.632;12.428;2024-03-06T12:33:17;15.23;;;13.13;;
55222;SDS011;41090;48.632;12.428;2024-03-06T12:35:42;14.63;;;13.13;;
55222;SDS011;41090;48.632;12.428;2024-03-06T12:38:14;14.63;;;13.20;;
55222;SDS011;41090;48.632;12.428;2024-03-06T12:40:40;14.50;;;13.03;;
55222;SDS011;41090;48.632;12.428;2024-03-06T12:43:06;14.60;;;13.17;;
55222;SDS011;41090;48.632;12.428;2024-03-06T12:45:31;13.13;;;11.83;;
55222;SDS011;41090;48.632;12.428;2024-03-06T12:47:56;14.57;;;13.07;;
55222;SDS011;41090;48.632;12.428;2024-03-06T12:50:21;21.40;;;15.13;;
55222;SDS011;41090;48.632;12.428;2024-03-06T12:52:47;16.67;;;14.83;;
55222;SDS011;41090;48.632;12.428;2024-03-06T12:55:12;15.13;;;13.53;;
55222;SDS011;41090;48.632;12.428;2024-03-06T12:57:37;14.60;;;12.80;;
55222;SDS011;41090;48.632;12.428;2024-03-06T13:00:03;14.33;;;12.83;;
55222;SDS011;41090;48.632;12.428;2024-03-06T13:02:28;15.33;;;13.23;;
55222;SDS011;41090;48.632;12.428;2024-03-06T13:04:53;16.93;;;14.63;;
55222;SDS011;41090;48.632;12.428;2024-03-06T13:07:19;14.93;;;13.43;;
55222;SDS011;41090;48.632;12.428;2024-03-06T13:09:44;14.30;;;12.80;;
55222;SDS011;41090;48.632;12.428;2024-03-06T13:12:09;14.40;;;12.73;;
55222;SDS011;41090;48.632;12.428;2024-03-06T13:14:35;15.63;;;14.00;;
55222;SDS011;41090;48.632;12.428;2024-03-06T13:17:00;14.23;;;12.73;;
55222;SDS011;41090;48.632;12.428;2024-03-06T13:19:26;15.23;;;13.10;;
55222;SDS011;41090;48.632;12.428;2024-03-06T13:21:51;13.57;;;12.10;;
55222;SDS011;41090;48.632;12.428;2024-03-06T13:24:17;14.00;;;12.50;;
55222;SDS011;41090;48.632;12.428;2024-03-06T13:26:42;14.00;;;12.55;;
55222;SDS011;41090;48.632;12.428;2024-03-06T13:29:08;14.60;;;13.20;;
55222;SDS011;41090;48.632;12.428;2024-03-06T13:31:33;13.55;;;12.23;;
55222;SDS011;41090;48.632;12.428;2024-03-06T13:34:02;14.38;;;12.90;;
55222;SDS011;41090;48.632;12.428;2024-03-06T13:36:28;14.30;;;12.90;;
55222;SDS011;41090;48.632;12.428;2024-03-06T13:38:54;14.15;;;12.68;;
55222;SDS011;41090;48.632;12.428;2024-03-06T13:41:19;14.27;;;12.87;;
55222;SDS011;41090;48.632;12.428;2024-03-06T13:43:44;14.47;;;12.97;;
55222;SDS011;41090;48.632;12.428;2024-03-06T13:46:09;14.83;;;13.20;;
55222;SDS011;41090;48.632;12.428;2024-03-06T13:48:34;14.13;;;12.77;;
55222;SDS011;41090;48.632;12.428;2024-03-06T13:51:01;15.00;;;13.50;;
55222;SDS011;41090;48.632;12.428;2024-03-06T13:53:26;14.30;;;12.90;;
55222;SDS011;41090;48.632;12.428;2024-03-06T13:55:51;13.63;;;12.33;;
55222;SDS011;41090;48.632;12.428;2024-03-06T13:58:17;14.03;;;12.63;;
55222;SDS011;41090;48.632;12.428;2024-03-06T14:00:42;13.67;;;12.37;;
55222;SDS011;41090;48.632;12.428;2024-03-06T14:03:07;14.90;;;13.40;;